createdAt,value
2018-06-11T00:00:15.672Z,66.82
2018-06-11T00:02:46.642Z,67.01
2018-06-11T00:05:17.679Z,66.70
2018-06-11T00:07:49.515Z,67.46
2018-06-11T00:10:20.484Z,66.39
2018-06-11T00:12:52.292Z,62.05
2018-06-11T00:15:23.461Z,65.40
2018-06-11T00:20:30.567Z,63.99
2018-06-11T00:23:01.877Z,59.88
2018-06-11T00:25:33.662Z,59.00
2018-06-11T00:28:04.624Z,58.37
2018-06-11T00:30:35.687Z,56.93
2018-06-11T00:33:06.630Z,56.57
2018-06-11T00:35:38.633Z,55.90
2018-06-11T00:38:09.729Z,56.30
2018-06-11T00:40:41.966Z,55.55
2018-06-11T00:43:13.839Z,55.03
2018-06-11T00:45:45.903Z,55.40
2018-06-11T00:48:17.076Z,55.49
2018-06-11T00:50:48.816Z,56.53
2018-06-11T00:53:19.754Z,55.58
2018-06-11T00:56:02.216Z,55.28
2018-06-11T00:58:33.002Z,55.79
2018-06-11T01:01:03.938Z,55.77
2018-06-11T01:03:34.672Z,54.39
2018-06-11T01:06:08.138Z,55.04
2018-06-11T01:08:39.233Z,54.92
2018-06-11T01:11:10.880Z,54.50
2018-06-11T01:13:41.740Z,55.13
2018-06-11T01:16:12.687Z,55.15
2018-06-11T01:18:43.755Z,54.14
2018-06-11T01:21:16.215Z,54.39
2018-06-11T01:23:47.162Z,54.09
2018-06-11T01:26:18.052Z,55.18
2018-06-11T01:28:49.025Z,55.59
2018-06-11T01:31:20.337Z,56.50
2018-06-11T01:33:51.042Z,59.60
2018-06-11T01:36:22.108Z,58.91
2018-06-11T01:38:53.029Z,57.84
2018-06-11T01:41:24.060Z,57.74
2018-06-11T01:43:54.907Z,56.87
2018-06-11T01:46:26.022Z,56.60
2018-06-11T01:48:57.077Z,56.33
2018-06-11T01:51:27.922Z,55.57
2018-06-11T01:53:58.877Z,55.93
2018-06-11T01:56:29.667Z,56.20
2018-06-11T01:59:00.643Z,56.22
2018-06-11T02:01:31.725Z,56.18
2018-06-11T02:04:02.654Z,56.71
2018-06-11T02:06:34.202Z,55.93
2018-06-11T02:09:05.406Z,56.34
2018-06-11T02:11:36.215Z,56.34
2018-06-11T02:14:07.080Z,56.03
2018-06-11T02:16:38.239Z,56.15
2018-06-11T02:19:09.080Z,57.15
2018-06-11T02:21:39.924Z,57.39
2018-06-11T02:24:10.767Z,57.47
2018-06-11T02:26:41.604Z,56.87
2018-06-11T02:29:12.616Z,56.99
2018-06-11T02:31:44.575Z,56.72
2018-06-11T02:34:15.663Z,55.64
2018-06-11T02:36:49.116Z,55.99
2018-06-11T02:39:20.236Z,55.73
2018-06-11T02:41:51.069Z,55.04
2018-06-11T02:44:22.093Z,54.23
2018-06-11T02:46:53.119Z,54.57
2018-06-11T02:49:24.024Z,54.46
2018-06-11T02:58:50.495Z,53.97
2018-06-11T03:01:21.398Z,53.00
2018-06-11T03:03:54.250Z,52.14
2018-06-11T03:06:25.375Z,52.10
2018-06-11T03:08:56.617Z,51.00
2018-06-11T03:11:28.373Z,48.70
2018-06-11T03:13:59.418Z,47.16
2018-06-11T03:16:30.468Z,46.90
2018-06-11T03:19:01.338Z,45.37
2018-06-11T03:21:32.314Z,44.97
2018-06-11T03:24:04.276Z,44.27
2018-06-11T03:26:35.316Z,43.17
2018-06-11T03:29:06.269Z,40.45
2018-06-11T03:31:37.126Z,39.82
2018-06-11T03:34:09.257Z,40.04
2018-06-11T03:36:40.301Z,40.45
2018-06-11T03:39:11.215Z,38.39
2018-06-11T03:41:42.936Z,36.70
2018-06-11T03:44:14.248Z,36.85
2018-06-11T03:46:45.287Z,35.97
2018-06-11T03:49:17.205Z,37.01
2018-06-11T03:51:48.290Z,36.00
2018-06-11T03:56:55.184Z,35.07
2018-06-11T03:59:26.235Z,32.98
2018-06-11T04:01:59.177Z,32.94
2018-06-11T04:04:30.235Z,33.29
2018-06-11T04:07:02.381Z,32.22
2018-06-11T04:09:33.722Z,31.94
2018-06-11T04:12:05.377Z,30.58
2018-06-11T04:14:36.476Z,30.22
2018-06-11T04:19:43.226Z,28.99
2018-06-11T04:22:14.305Z,27.95
2018-06-11T04:24:45.345Z,28.65
2018-06-11T04:27:16.325Z,29.94
2018-06-11T04:29:47.207Z,29.43
2018-06-11T04:32:19.740Z,27.98
2018-06-11T04:34:50.714Z,26.37
2018-06-11T04:39:58.210Z,26.06
2018-06-11T04:42:29.208Z,25.53
2018-06-11T04:45:00.494Z,26.79
2018-06-11T04:47:31.311Z,27.88
2018-06-11T04:50:03.027Z,25.99
2018-06-11T04:52:33.929Z,27.20
2018-06-11T04:55:05.662Z,26.40
2018-06-11T04:57:36.690Z,26.53
2018-06-11T05:00:08.592Z,27.47
2018-06-11T05:02:39.372Z,26.62
2018-06-11T05:07:48.395Z,24.78
2018-06-11T05:10:19.351Z,24.04
2018-06-11T05:12:53.901Z,25.22
2018-06-11T05:15:24.747Z,23.36
2018-06-11T05:20:33.108Z,24.58
2018-06-11T05:23:04.147Z,25.17
2018-06-11T05:25:36.082Z,25.09
2018-06-11T05:28:07.133Z,22.79
2018-06-11T05:30:37.960Z,25.68
2018-06-11T05:33:11.663Z,25.79
2018-06-11T05:35:45.834Z,23.87
2018-06-11T05:38:16.902Z,23.21
2018-06-11T05:40:48.263Z,22.47
2018-06-11T05:43:19.344Z,20.87
2018-06-11T05:45:50.272Z,21.56
2018-06-11T05:48:21.270Z,24.98
2018-06-11T05:50:54.209Z,24.88
2018-06-11T05:53:25.215Z,26.34
2018-06-11T05:55:56.261Z,24.40
2018-06-11T05:58:27.717Z,22.03
2018-06-11T06:00:58.761Z,24.16
2018-06-11T06:03:29.889Z,24.58
2018-06-11T06:06:00.891Z,25.37
2018-06-11T06:08:31.811Z,23.42
2018-06-11T06:11:03.025Z,21.52
2018-06-11T06:13:34.010Z,25.51
2018-06-11T06:18:41.586Z,23.08
2018-06-11T06:21:12.571Z,22.06
2018-06-11T06:23:44.348Z,23.20
2018-06-11T06:26:15.419Z,21.05
2018-06-11T06:28:49.603Z,20.42
2018-06-11T06:31:20.846Z,18.39
2018-06-11T06:33:51.940Z,18.37
2018-06-11T06:36:22.977Z,16.99
2018-06-11T06:38:54.015Z,19.73
2018-06-11T06:41:25.115Z,21.86
2018-06-11T06:43:58.773Z,18.61
2018-06-11T06:46:30.610Z,16.96
2018-06-11T06:49:02.345Z,17.68
2018-06-11T06:51:33.314Z,20.86
2018-06-11T06:54:04.372Z,18.67
2018-06-11T06:56:36.968Z,17.61
2018-06-11T07:01:44.096Z,16.51
2018-06-11T07:04:14.662Z,16.96
2018-06-11T07:06:47.109Z,16.54
2018-06-11T07:09:17.655Z,16.01
2018-06-11T07:11:48.364Z,16.17
2018-06-11T07:14:18.949Z,15.40
2018-06-11T07:16:52.363Z,14.50
2018-06-11T07:19:22.839Z,18.14
2018-06-11T07:21:53.406Z,16.47
2018-06-11T07:24:23.967Z,15.99
2018-06-11T07:26:55.353Z,15.64
2018-06-11T07:29:25.922Z,15.83
2018-06-11T07:31:57.546Z,16.69
2018-06-11T07:34:28.034Z,19.35
2018-06-11T07:36:59.046Z,19.04
2018-06-11T07:39:29.853Z,18.84
2018-06-11T07:42:01.884Z,21.08
2018-06-11T07:44:33.943Z,22.13
2018-06-11T07:47:05.336Z,21.47
2018-06-11T07:49:36.437Z,21.06
2018-06-11T07:52:07.342Z,21.31
2018-06-11T07:54:38.431Z,22.70
2018-06-11T07:57:12.695Z,22.87
2018-06-11T07:59:43.666Z,22.07
2018-06-11T08:02:14.497Z,22.89
2018-06-11T08:04:45.387Z,23.57
2018-06-11T08:07:16.352Z,23.29
2018-06-11T08:09:47.264Z,24.13
2018-06-11T08:12:19.219Z,24.93
2018-06-11T08:14:50.189Z,27.86
2018-06-11T08:17:21.300Z,30.92
2018-06-11T08:19:52.525Z,32.99
2018-06-11T08:22:23.640Z,35.16
2018-06-11T08:24:54.625Z,35.41
2018-06-11T08:27:27.372Z,37.14
2018-06-11T08:29:58.096Z,37.76
2018-06-11T08:32:29.212Z,38.29
2018-06-11T08:35:00.000Z,38.48
2018-06-11T08:37:31.713Z,41.79
2018-06-11T08:40:02.685Z,39.42
2018-06-11T08:42:33.900Z,39.75
2018-06-11T08:45:05.042Z,40.44
2018-06-11T08:47:36.964Z,41.08
2018-06-11T08:50:08.303Z,42.18
2018-06-11T08:52:39.257Z,39.95
2018-06-11T08:55:10.379Z,40.75
2018-06-11T08:57:43.120Z,41.12
2018-06-11T09:00:14.349Z,41.66
2018-06-11T09:02:47.377Z,40.90
2018-06-11T09:05:18.284Z,42.53
2018-06-11T09:07:49.383Z,42.90
2018-06-11T09:10:20.447Z,43.76
2018-06-11T09:12:53.080Z,41.82
2018-06-11T09:15:23.997Z,42.99
2018-06-11T09:17:55.290Z,40.92
2018-06-11T09:20:26.414Z,40.69
2018-06-11T09:22:59.966Z,44.21
2018-06-11T09:25:30.927Z,43.33
2018-06-11T09:28:07.702Z,45.24
2018-06-11T09:30:38.650Z,44.20
2018-06-11T09:33:09.592Z,43.20
2018-06-11T09:35:40.506Z,43.40
2018-06-11T09:38:11.441Z,42.93
2018-06-11T09:40:42.548Z,40.97
2018-06-11T09:45:49.750Z,44.94
2018-06-11T09:48:20.745Z,43.21
2018-06-11T09:50:52.646Z,44.89
2018-06-11T09:53:23.651Z,45.61
2018-06-11T09:55:55.597Z,43.77
2018-06-11T09:58:26.527Z,44.01
2018-06-11T10:00:58.481Z,42.42
2018-06-11T10:03:29.443Z,41.92
2018-06-11T10:06:07.346Z,43.21
2018-06-11T10:08:38.110Z,43.05
2018-06-11T10:11:09.910Z,42.65
2018-06-11T10:13:41.041Z,44.28
2018-06-11T10:18:47.894Z,44.39
2018-06-11T10:21:18.519Z,45.73
2018-06-11T10:23:52.437Z,46.41
2018-06-11T10:26:23.160Z,45.19
2018-06-11T10:28:53.860Z,45.86
2018-06-11T10:31:24.366Z,47.53
2018-06-11T10:33:56.309Z,47.48
2018-06-11T10:36:27.380Z,47.16
2018-06-11T10:38:58.520Z,49.58
2018-06-11T10:41:29.578Z,49.10
2018-06-11T10:44:00.636Z,48.22
2018-06-11T10:46:31.716Z,42.40
2018-06-11T10:49:10.034Z,44.75
2018-06-11T10:51:41.013Z,38.11
2018-06-11T10:54:13.758Z,43.72
2018-06-11T10:56:44.775Z,44.09
2018-06-11T10:59:21.292Z,42.91
2018-06-11T11:01:52.592Z,43.95
2018-06-11T11:04:25.641Z,43.58
2018-06-11T11:06:56.624Z,43.06
2018-06-11T11:09:28.612Z,42.25
2018-06-11T11:11:59.559Z,43.42
2018-06-11T11:14:32.202Z,44.17
2018-06-11T11:17:03.199Z,44.00
2018-06-11T11:19:34.271Z,45.33
2018-06-11T11:22:05.230Z,43.43
2018-06-11T11:24:36.388Z,44.70
2018-06-11T11:27:07.553Z,43.70
2018-06-11T11:29:39.527Z,43.59
2018-06-11T11:32:10.538Z,43.56
2018-06-11T11:34:44.039Z,45.17
2018-06-11T11:37:14.923Z,45.97
2018-06-11T11:39:48.522Z,47.96
2018-06-11T11:42:19.508Z,47.68
2018-06-11T11:44:53.003Z,49.39
2018-06-11T11:47:23.965Z,53.19
2018-06-11T11:52:31.321Z,54.70
2018-06-11T11:55:02.528Z,56.21
2018-06-11T11:57:34.285Z,56.71
2018-06-11T12:00:05.717Z,57.04
2018-06-11T12:02:38.720Z,57.09
2018-06-11T12:05:10.436Z,57.94
2018-06-11T12:07:41.694Z,61.17
2018-06-11T12:10:13.456Z,59.82
2018-06-11T12:12:44.599Z,60.38
2018-06-11T12:15:15.696Z,60.91
2018-06-11T12:17:46.720Z,59.44
2018-06-11T12:20:17.546Z,61.31
2018-06-11T12:22:49.512Z,61.47
2018-06-11T12:25:20.290Z,58.83
2018-06-11T12:27:51.273Z,60.64
2018-06-11T12:30:22.164Z,62.71
2018-06-11T12:38:06.590Z,62.64
2018-06-11T12:40:37.304Z,64.54
2018-06-11T12:43:09.633Z,65.75
2018-06-11T12:45:40.722Z,62.46
2018-06-11T12:48:11.801Z,62.99
2018-06-11T12:50:42.685Z,63.10
2018-06-11T12:53:13.696Z,60.73
2018-06-11T12:55:45.579Z,61.71
2018-06-11T12:58:16.765Z,61.86
2018-06-11T13:00:50.068Z,61.53
2018-06-11T13:03:21.214Z,60.52
2018-06-11T13:05:51.995Z,54.03
2018-06-11T13:08:23.809Z,54.84
2018-06-11T13:10:55.077Z,55.34
2018-06-11T13:13:26.169Z,54.82
2018-06-11T13:15:57.114Z,55.71
2018-06-11T13:18:28.083Z,56.40
2018-06-11T13:20:59.246Z,53.33
2018-06-11T13:23:32.651Z,52.86
2018-06-11T13:26:03.901Z,55.06
2018-06-11T13:28:34.988Z,55.75
2018-06-11T13:31:06.111Z,53.46
2018-06-11T13:33:37.337Z,55.31
2018-06-11T13:36:08.286Z,58.04
2018-06-11T13:41:16.252Z,59.94
2018-06-11T13:43:47.538Z,59.30
2018-06-11T13:46:18.576Z,60.52
2018-06-11T13:48:49.791Z,61.46
2018-06-11T13:51:20.857Z,61.93
2018-06-11T13:53:51.683Z,61.64
2018-06-11T13:56:24.385Z,62.38
2018-06-11T13:58:55.505Z,60.30
2018-06-11T14:01:26.605Z,61.37
2018-06-11T14:03:57.646Z,62.75
2018-06-11T14:06:31.064Z,62.07
2018-06-11T14:09:02.078Z,62.16
2018-06-11T14:11:34.127Z,62.86
2018-06-11T14:14:05.205Z,62.40
2018-06-11T14:16:39.065Z,62.73
2018-06-11T14:19:10.069Z,62.82
2018-06-11T14:21:42.675Z,63.16
2018-06-11T14:24:13.765Z,62.59
2018-06-11T14:26:44.677Z,63.30
2018-06-11T14:29:16.530Z,63.63
2018-06-11T14:31:50.076Z,64.21
2018-06-11T14:34:21.118Z,63.99
2018-06-11T14:39:28.742Z,65.58
2018-06-11T14:41:59.689Z,66.60
2018-06-11T14:44:30.709Z,67.59
2018-06-11T14:47:01.670Z,68.26
2018-06-11T14:49:32.702Z,68.72
2018-06-11T14:52:03.905Z,68.04
2018-06-11T14:54:36.489Z,68.84
2018-06-11T14:57:07.555Z,69.43
2018-06-11T14:59:39.343Z,68.86
2018-06-11T15:02:12.935Z,68.89
2018-06-11T15:04:44.010Z,69.69
2018-06-11T15:07:14.811Z,70.90
2018-06-11T15:09:45.843Z,70.80
2018-06-11T15:12:16.559Z,70.54
2018-06-11T15:14:47.728Z,71.51
2018-06-11T15:17:19.450Z,70.62
2018-06-11T15:19:51.153Z,71.00
2018-06-11T15:22:22.376Z,71.52
2018-06-11T15:24:55.802Z,72.05
2018-06-11T15:27:26.942Z,73.14
2018-06-11T15:29:58.052Z,74.02
2018-06-11T15:32:28.885Z,75.29
2018-06-11T15:35:00.817Z,74.69
2018-06-11T15:37:32.793Z,74.07
2018-06-11T15:40:03.848Z,73.74
2018-06-11T15:42:35.440Z,73.89
2018-06-11T15:45:07.470Z,73.50
2018-06-11T15:47:38.286Z,74.06
2018-06-11T15:50:09.351Z,74.20
2018-06-11T15:52:40.505Z,75.18
2018-06-11T15:55:12.410Z,76.29
2018-06-11T15:57:43.375Z,76.90
2018-06-11T16:02:50.610Z,78.67
2018-06-11T16:05:21.797Z,78.16
2018-06-11T16:07:54.051Z,78.21
2018-06-11T16:10:25.266Z,76.99
2018-06-11T16:12:58.017Z,77.48
2018-06-11T16:15:29.207Z,78.84
2018-06-11T16:18:00.224Z,79.26
2018-06-11T16:20:31.383Z,79.88
2018-06-11T16:23:02.532Z,80.90
2018-06-11T16:25:33.760Z,82.12
2018-06-11T16:28:07.752Z,81.68
2018-06-11T16:30:38.665Z,82.54
2018-06-11T16:33:09.616Z,83.66
2018-06-11T16:35:40.676Z,83.13
2018-06-11T16:38:12.700Z,83.60
2018-06-11T16:40:43.763Z,84.97
2018-06-11T16:43:16.008Z,83.86
2018-06-11T16:45:47.256Z,84.72
2018-06-11T16:48:19.844Z,85.25
2018-06-11T16:50:50.835Z,86.20
2018-06-11T16:53:22.856Z,86.38
2018-06-11T16:55:53.748Z,87.14
2018-06-11T16:58:24.964Z,87.68
2018-06-11T17:00:55.965Z,87.76
2018-06-11T17:03:29.326Z,87.55
2018-06-11T17:06:00.316Z,88.18
2018-06-11T17:08:32.292Z,88.75
2018-06-11T17:11:03.525Z,89.04
2018-06-11T17:13:34.641Z,90.00
2018-06-11T17:16:05.518Z,89.76
2018-06-11T17:18:39.327Z,91.48
2018-06-11T17:21:10.203Z,93.43
2018-06-11T17:23:41.145Z,93.46
2018-06-11T17:26:11.926Z,93.92
2018-06-11T17:28:43.772Z,94.39
2018-06-11T17:31:14.623Z,94.53
2018-06-11T17:33:45.801Z,95.74
2018-06-11T17:36:16.991Z,96.53
2018-06-11T17:38:48.970Z,96.66
2018-06-11T17:41:20.234Z,96.75
2018-06-11T17:43:51.330Z,97.06
2018-06-11T17:46:22.462Z,96.59
2018-06-11T17:48:53.406Z,97.52
2018-06-11T17:51:24.489Z,96.84
2018-06-11T17:53:57.069Z,98.45
2018-06-11T17:56:28.353Z,97.59
2018-06-11T17:58:59.581Z,96.28
2018-06-11T18:01:30.891Z,94.56
2018-06-11T18:04:02.016Z,93.87
2018-06-11T18:06:33.000Z,92.06
2018-06-11T18:09:04.900Z,88.82
2018-06-11T18:11:36.074Z,88.49
2018-06-11T18:14:07.189Z,87.68
2018-06-11T18:16:37.969Z,88.04
2018-06-11T18:19:11.529Z,87.54
2018-06-11T18:21:42.533Z,87.60
2018-06-11T18:24:13.497Z,88.29
2018-06-11T18:26:44.467Z,87.96
2018-06-11T18:29:17.553Z,88.32
2018-06-11T18:31:48.686Z,87.95
2018-06-11T18:34:19.718Z,87.48
2018-06-11T18:36:50.799Z,87.71
2018-06-11T18:39:23.488Z,87.32
2018-06-11T18:41:54.516Z,87.77
2018-06-11T18:44:26.484Z,88.73
2018-06-11T18:46:57.567Z,88.38
2018-06-11T18:49:30.427Z,88.81
2018-06-11T18:52:01.476Z,90.38
2018-06-11T18:54:32.602Z,90.45
2018-06-11T18:57:04.454Z,91.12
2018-06-11T18:59:35.552Z,91.20
2018-06-11T19:02:06.582Z,92.17
2018-06-11T19:04:38.486Z,93.29
2018-06-11T19:07:14.054Z,93.30
2018-06-11T19:09:47.573Z,93.87
2018-06-11T19:12:18.857Z,94.10
2018-06-11T19:14:51.552Z,95.91
2018-06-11T19:17:22.386Z,96.58
2018-06-11T19:19:55.382Z,97.43
2018-06-11T19:22:26.428Z,97.58
2018-06-11T19:24:59.881Z,98.66
2018-06-11T19:27:31.020Z,99.12
2018-06-11T19:30:01.961Z,99.52
2018-06-11T19:32:33.040Z,98.69
2018-06-11T19:35:04.335Z,97.71
2018-06-11T19:37:35.435Z,98.35
2018-06-11T19:40:09.094Z,97.70
2018-06-11T19:42:40.109Z,97.48
2018-06-11T19:45:11.276Z,98.20
2018-06-11T19:47:42.842Z,98.78
2018-06-11T19:50:13.946Z,98.90
2018-06-11T19:52:44.811Z,99.42
2018-06-11T19:55:15.984Z,99.23
2018-06-11T19:57:47.165Z,100.00
2018-06-11T20:00:18.363Z,100.00
2018-06-11T20:02:49.587Z,100.00
2018-06-11T20:05:21.331Z,100.00
2018-06-11T20:07:52.426Z,100.00
2018-06-11T20:10:23.758Z,100.00
2018-06-11T20:12:54.886Z,100.00
2018-06-11T20:15:26.041Z,100.00
2018-06-11T20:17:57.113Z,100.00
2018-06-11T20:20:29.140Z,100.00
2018-06-11T20:23:00.197Z,100.00
2018-06-11T20:25:31.213Z,100.00
2018-06-11T20:28:02.351Z,100.00
2018-06-11T20:30:33.634Z,100.00
2018-06-11T20:33:05.558Z,100.00
2018-06-11T20:35:37.418Z,100.00
2018-06-11T20:38:08.571Z,100.00
2018-06-11T20:40:45.827Z,100.00
2018-06-11T20:43:16.952Z,100.00
2018-06-11T20:45:54.218Z,100.00
2018-06-11T20:48:25.161Z,100.00
2018-06-11T20:50:56.284Z,100.00
2018-06-11T20:53:27.630Z,100.00
2018-06-11T20:55:58.736Z,100.00
2018-06-11T20:58:29.818Z,100.00
2018-06-11T21:03:37.651Z,100.00
2018-06-11T21:06:10.487Z,100.00
2018-06-11T21:08:42.442Z,100.00
2018-06-11T21:11:13.317Z,100.00
2018-06-11T21:16:21.828Z,100.00
2018-06-11T21:18:52.846Z,100.00
2018-06-11T21:21:23.848Z,100.00
2018-06-11T21:23:54.843Z,100.00
2018-06-11T21:26:26.131Z,100.00
2018-06-11T21:28:57.272Z,100.00
2018-06-11T21:31:28.224Z,100.00
2018-06-11T21:33:59.412Z,100.00
2018-06-11T21:36:30.282Z,100.00
2018-06-11T21:39:02.185Z,100.00
2018-06-11T21:41:33.196Z,100.00
2018-06-11T21:44:07.654Z,100.00
2018-06-11T21:46:39.054Z,100.00
2018-06-11T21:49:10.027Z,100.00
2018-06-11T21:51:40.961Z,100.00
2018-06-11T21:54:12.989Z,100.00
2018-06-11T21:56:43.984Z,100.00
2018-06-11T21:59:15.925Z,100.00
2018-06-11T22:01:46.963Z,100.00
2018-06-11T22:04:20.889Z,100.00
2018-06-11T22:06:51.860Z,100.00
2018-06-11T22:09:24.829Z,100.00
2018-06-11T22:11:55.978Z,99.88
2018-06-11T22:17:03.678Z,99.47
2018-06-11T22:19:34.794Z,98.80
2018-06-11T22:22:08.573Z,98.00
2018-06-11T22:24:39.676Z,97.57
2018-06-11T22:27:10.777Z,96.52
2018-06-11T22:29:41.630Z,96.49
2018-06-11T22:32:12.615Z,95.99
2018-06-11T22:34:43.546Z,95.43
2018-06-11T22:37:14.723Z,94.84
2018-06-11T22:39:45.618Z,94.16
2018-06-11T22:42:16.471Z,94.27
2018-06-11T22:44:47.468Z,93.79
2018-06-11T22:47:18.598Z,91.43
2018-06-11T22:49:49.717Z,91.76
2018-06-11T22:52:20.844Z,91.72
2018-06-11T22:54:51.921Z,90.86
2018-06-11T22:57:23.832Z,90.36
2018-06-11T22:59:54.855Z,89.27
2018-06-11T23:02:28.272Z,87.60
2018-06-11T23:04:59.419Z,85.30
2018-06-11T23:07:30.579Z,83.71
2018-06-11T23:10:01.695Z,85.39
2018-06-11T23:12:33.459Z,85.33
2018-06-11T23:15:04.276Z,84.68
2018-06-11T23:17:35.305Z,84.62
2018-06-11T23:20:06.069Z,83.72
2018-06-11T23:22:37.719Z,84.26
2018-06-11T23:25:08.556Z,83.96
2018-06-11T23:27:41.919Z,83.78
2018-06-11T23:30:12.970Z,83.46
2018-06-11T23:32:45.714Z,81.97
2018-06-11T23:35:16.670Z,82.11
2018-06-11T23:37:48.415Z,81.90
2018-06-11T23:40:19.280Z,81.40
2018-06-11T23:42:50.303Z,82.51
2018-06-11T23:45:21.280Z,81.33
2018-06-11T23:47:52.301Z,80.77
2018-06-11T23:50:23.088Z,82.16
2018-06-11T23:52:55.068Z,81.63
2018-06-11T23:55:26.021Z,79.67
2018-06-11T23:58:01.868Z,80.70
